Aérodrome :







RETROUVEZ-NOUS SUR...

 
LOGIN :

S'inscrire | Disclaimer

   EN    FR    IT 

 









Légende :    VFR   VFR Marginal   IFR   IFR Intensif   IFR Très Intensif
Visi : 
Plafond : 
>= 8 km
>= 3000ft
5 à 8 km
1000 à 3000 ft
1500m à 5 km
500 à 1000 ft
800 à 1500m
200 à 500 ft
< 800m
< 200 ft
Symboles :   Orages  Brouillard  Fortes neiges  Fortes précipitations  Vent > 20 kt






- Altitude de l'aérodrome : 1166 ft


KMPV - Edward F Knapp State

DERNIER METAR :
  • 242151Z AUTO 16006KT 10SM CLR 08/M04 A2990 RMK AO2 SLP140 T00831039

METARs EXPIRÉS :
  • 242051Z AUTO 21006KT 10SM CLR 10/M04 A2990 RMK AO2 SLP137 T01001044 56004
  • 241951Z AUTO 21008KT 10SM CLR 11/M04 A2990 RMK AO2 SLP137 T01061044

TAF KMPV
Valide du 24 à 18h jusqu'au 25 à 18h UTC


241734Z 2418/2518 19010KT P6SM FEW200
FM242200 VRB04KT P6SM FEW200
FM250200 00000KT P6SM BKN180
FM250500 00000KT P6SM BKN100



MET'MAP, la Météo Aéronautique d'un coup d'oeil ! - Copyright ORBIFLY Décembre 2007 - Disclaimer

ORBIFLY MET'MAP TEAM :

Programmation & Développement : Alexandra Zaïnal
Sur une idée originale de : Baudouin d'Aumeries
Assistance à la programmation : Marc-Olivier Méhu
Soutien technique & logistique : Manuel Goepfert

Contact : metmap@orbifly.com




SOURCES & CREDITS :

   NOAA